Terminal Aerodrome Forecast
Issued by NWS Wilmington, OH

Current Version | Previous Version | Graphics & Text | Print | Product List | Glossary On
Versions: 1 2 3 4 5 6 7 8 9 10 11 12 13 14 15 16 17 18 19 20 21 22 23 24 25
000
FTUS41 KILN 300900 AAA
TAFCVG
TAF AMD
KCVG 300908Z 3009/3112 19008KT P6SM SKC
     FM301300 20010KT P6SM SCT060
     FM301600 21011G17KT P6SM SCT050
     FM302100 21008KT P6SM VCTS SCT040CB
     FM310200 17008KT P6SM -SHRA VCTS SCT020CB OVC080
     FM310900 18006KT 4SM -SHRA VCTS OVC015CB=

USA.gov is the U.S. government's official web portal to all federal, state and local government web resources and services.